sensor_id;sensor_type;location;lat;lon;timestamp;P1;durP1;ratioP1;P2;durP2;ratioP2
10509;SDS011;5303;53.266;10.410;2023-05-14T00:01:11;7.60;;;6.20;;
10509;SDS011;5303;53.266;10.410;2023-05-14T00:03:36;6.70;;;5.40;;
10509;SDS011;5303;53.266;10.410;2023-05-14T00:06:03;7.33;;;5.80;;
10509;SDS011;5303;53.266;10.410;2023-05-14T00:08:29;6.00;;;5.40;;
10509;SDS011;5303;53.266;10.410;2023-05-14T00:10:54;7.20;;;5.87;;
10509;SDS011;5303;53.266;10.410;2023-05-14T00:13:20;6.30;;;5.30;;
10509;SDS011;5303;53.266;10.410;2023-05-14T00:15:45;6.67;;;5.67;;
10509;SDS011;5303;53.266;10.410;2023-05-14T00:18:10;9.37;;;5.30;;
10509;SDS011;5303;53.266;10.410;2023-05-14T00:20:36;7.10;;;5.87;;
10509;SDS011;5303;53.266;10.410;2023-05-14T00:23:01;7.10;;;5.50;;
10509;SDS011;5303;53.266;10.410;2023-05-14T00:25:27;5.97;;;5.37;;
10509;SDS011;5303;53.266;10.410;2023-05-14T00:27:52;7.43;;;5.40;;
10509;SDS011;5303;53.266;10.410;2023-05-14T00:30:17;6.73;;;6.03;;
10509;SDS011;5303;53.266;10.410;2023-05-14T00:32:43;6.43;;;5.50;;
10509;SDS011;5303;53.266;10.410;2023-05-14T00:35:08;7.10;;;5.47;;
10509;SDS011;5303;53.266;10.410;2023-05-14T00:37:33;6.87;;;6.20;;
10509;SDS011;5303;53.266;10.410;2023-05-14T00:40:00;6.67;;;5.80;;
10509;SDS011;5303;53.266;10.410;2023-05-14T00:42:25;6.20;;;5.60;;
10509;SDS011;5303;53.266;10.410;2023-05-14T00:44:51;6.67;;;6.07;;
10509;SDS011;5303;53.266;10.410;2023-05-14T00:47:18;5.90;;;5.40;;
10509;SDS011;5303;53.266;10.410;2023-05-14T00:49:43;8.57;;;5.90;;
10509;SDS011;5303;53.266;10.410;2023-05-14T00:52:09;6.87;;;6.13;;
10509;SDS011;5303;53.266;10.410;2023-05-14T00:54:35;7.43;;;6.10;;
10509;SDS011;5303;53.266;10.410;2023-05-14T00:57:01;7.60;;;6.10;;
10509;SDS011;5303;53.266;10.410;2023-05-14T00:59:27;6.47;;;5.87;;
10509;SDS011;5303;53.266;10.410;2023-05-14T01:01:52;6.30;;;5.70;;
10509;SDS011;5303;53.266;10.410;2023-05-14T01:04:18;6.37;;;5.43;;
10509;SDS011;5303;53.266;10.410;2023-05-14T01:09:17;7.00;;;5.73;;
10509;SDS011;5303;53.266;10.410;2023-05-14T01:17:15;6.77;;;6.03;;
10509;SDS011;5303;53.266;10.410;2023-05-14T01:19:44;7.23;;;5.97;;
10509;SDS011;5303;53.266;10.410;2023-05-14T01:22:11;6.60;;;6.00;;
10509;SDS011;5303;53.266;10.410;2023-05-14T01:24:37;6.23;;;5.67;;
10509;SDS011;5303;53.266;10.410;2023-05-14T01:27:22;7.10;;;5.93;;
10509;SDS011;5303;53.266;10.410;2023-05-14T01:29:57;7.33;;;6.40;;
10509;SDS011;5303;53.266;10.410;2023-05-14T01:32:27;6.63;;;5.90;;
10509;SDS011;5303;53.266;10.410;2023-05-14T01:34:54;7.80;;;6.43;;
10509;SDS011;5303;53.266;10.410;2023-05-14T01:37:22;7.27;;;6.53;;
10509;SDS011;5303;53.266;10.410;2023-05-14T01:39:49;7.73;;;6.30;;
10509;SDS011;5303;53.266;10.410;2023-05-14T01:42:15;6.67;;;6.00;;
10509;SDS011;5303;53.266;10.410;2023-05-14T01:44:41;7.57;;;6.17;;
10509;SDS011;5303;53.266;10.410;2023-05-14T01:47:06;7.70;;;6.60;;
10509;SDS011;5303;53.266;10.410;2023-05-14T01:49:32;6.87;;;6.00;;
10509;SDS011;5303;53.266;10.410;2023-05-14T01:51:57;7.73;;;6.23;;
10509;SDS011;5303;53.266;10.410;2023-05-14T01:54:22;7.73;;;6.33;;
10509;SDS011;5303;53.266;10.410;2023-05-14T01:56:47;7.13;;;6.43;;
10509;SDS011;5303;53.266;10.410;2023-05-14T01:59:13;7.40;;;6.30;;
10509;SDS011;5303;53.266;10.410;2023-05-14T02:01:38;7.27;;;6.40;;
10509;SDS011;5303;53.266;10.410;2023-05-14T02:04:03;7.23;;;6.40;;
10509;SDS011;5303;53.266;10.410;2023-05-14T02:06:29;7.47;;;6.77;;
10509;SDS011;5303;53.266;10.410;2023-05-14T02:08:55;7.90;;;6.50;;
10509;SDS011;5303;53.266;10.410;2023-05-14T02:11:20;8.70;;;6.77;;
10509;SDS011;5303;53.266;10.410;2023-05-14T02:13:46;6.77;;;6.17;;
10509;SDS011;5303;53.266;10.410;2023-05-14T02:16:11;7.20;;;6.33;;
10509;SDS011;5303;53.266;10.410;2023-05-14T02:18:36;7.10;;;6.40;;
10509;SDS011;5303;53.266;10.410;2023-05-14T02:21:01;7.00;;;6.30;;
10509;SDS011;5303;53.266;10.410;2023-05-14T02:23:27;8.33;;;7.30;;
10509;SDS011;5303;53.266;10.410;2023-05-14T02:25:52;7.27;;;6.67;;
10509;SDS011;5303;53.266;10.410;2023-05-14T02:28:18;6.77;;;6.07;;
10509;SDS011;5303;53.266;10.410;2023-05-14T02:30:43;8.40;;;6.83;;
10509;SDS011;5303;53.266;10.410;2023-05-14T02:33:08;7.67;;;6.33;;
10509;SDS011;5303;53.266;10.410;2023-05-14T02:35:33;8.10;;;6.87;;
10509;SDS011;5303;53.266;10.410;2023-05-14T02:37:59;7.70;;;7.00;;
10509;SDS011;5303;53.266;10.410;2023-05-14T02:40:24;8.40;;;6.20;;
10509;SDS011;5303;53.266;10.410;2023-05-14T02:42:49;7.87;;;7.07;;
10509;SDS011;5303;53.266;10.410;2023-05-14T02:45:15;7.63;;;6.80;;
10509;SDS011;5303;53.266;10.410;2023-05-14T02:47:40;8.10;;;7.30;;
10509;SDS011;5303;53.266;10.410;2023-05-14T02:50:06;8.77;;;7.00;;
10509;SDS011;5303;53.266;10.410;2023-05-14T02:52:32;8.27;;;7.30;;
10509;SDS011;5303;53.266;10.410;2023-05-14T02:54:57;9.87;;;7.40;;
10509;SDS011;5303;53.266;10.410;2023-05-14T02:57:22;9.27;;;7.43;;
10509;SDS011;5303;53.266;10.410;2023-05-14T02:59:48;7.77;;;6.97;;
10509;SDS011;5303;53.266;10.410;2023-05-14T03:02:14;7.87;;;7.10;;
10509;SDS011;5303;53.266;10.410;2023-05-14T03:04:39;7.97;;;7.17;;
10509;SDS011;5303;53.266;10.410;2023-05-14T03:07:04;7.50;;;6.80;;
10509;SDS011;5303;53.266;10.410;2023-05-14T03:09:30;8.27;;;7.47;;
10509;SDS011;5303;53.266;10.410;2023-05-14T03:11:55;8.40;;;7.40;;
10509;SDS011;5303;53.266;10.410;2023-05-14T03:14:20;8.17;;;7.30;;
10509;SDS011;5303;53.266;10.410;2023-05-14T03:16:46;8.50;;;7.60;;
10509;SDS011;5303;53.266;10.410;2023-05-14T03:19:11;8.67;;;7.70;;
10509;SDS011;5303;53.266;10.410;2023-05-14T03:21:36;8.67;;;7.57;;
10509;SDS011;5303;53.266;10.410;2023-05-14T03:24:01;10.13;;;7.57;;
10509;SDS011;5303;53.266;10.410;2023-05-14T03:26:27;8.00;;;7.23;;
10509;SDS011;5303;53.266;10.410;2023-05-14T03:28:53;8.53;;;7.40;;
10509;SDS011;5303;53.266;10.410;2023-05-14T03:31:18;8.83;;;7.93;;
10509;SDS011;5303;53.266;10.410;2023-05-14T03:33:44;9.37;;;7.33;;
10509;SDS011;5303;53.266;10.410;2023-05-14T03:36:09;8.67;;;7.67;;
10509;SDS011;5303;53.266;10.410;2023-05-14T03:38:35;8.73;;;7.67;;
10509;SDS011;5303;53.266;10.410;2023-05-14T03:41:00;8.77;;;7.77;;
10509;SDS011;5303;53.266;10.410;2023-05-14T03:43:26;8.93;;;7.93;;
10509;SDS011;5303;53.266;10.410;2023-05-14T03:45:51;9.13;;;7.40;;
10509;SDS011;5303;53.266;10.410;2023-05-14T03:48:17;8.33;;;7.53;;
10509;SDS011;5303;53.266;10.410;2023-05-14T03:50:43;8.03;;;7.23;;
10509;SDS011;5303;53.266;10.410;2023-05-14T03:53:08;11.87;;;8.93;;
10509;SDS011;5303;53.266;10.410;2023-05-14T03:55:34;8.03;;;7.23;;
10509;SDS011;5303;53.266;10.410;2023-05-14T03:58:00;9.13;;;8.30;;
10509;SDS011;5303;53.266;10.410;2023-05-14T04:00:26;8.07;;;7.37;;
10509;SDS011;5303;53.266;10.410;2023-05-14T04:02:52;8.10;;;7.40;;
10509;SDS011;5303;53.266;10.410;2023-05-14T04:05:17;8.10;;;7.30;;
10509;SDS011;5303;53.266;10.410;2023-05-14T04:07:42;8.17;;;7.37;;
10509;SDS011;5303;53.266;10.410;2023-05-14T04:10:09;8.17;;;7.47;;
10509;SDS011;5303;53.266;10.410;2023-05-14T04:12:35;7.80;;;7.00;;
10509;SDS011;5303;53.266;10.410;2023-05-14T04:15:00;8.77;;;7.63;;
10509;SDS011;5303;53.266;10.410;2023-05-14T04:17:25;8.57;;;7.77;;
10509;SDS011;5303;53.266;10.410;2023-05-14T04:19:50;8.80;;;8.00;;
10509;SDS011;5303;53.266;10.410;2023-05-14T04:22:16;8.60;;;7.80;;
10509;SDS011;5303;53.266;10.410;2023-05-14T04:24:41;8.90;;;7.83;;
10509;SDS011;5303;53.266;10.410;2023-05-14T04:27:06;7.30;;;6.60;;
10509;SDS011;5303;53.266;10.410;2023-05-14T04:29:31;7.47;;;6.67;;
10509;SDS011;5303;53.266;10.410;2023-05-14T04:31:57;7.20;;;6.50;;
10509;SDS011;5303;53.266;10.410;2023-05-14T04:34:22;7.43;;;6.50;;
10509;SDS011;5303;53.266;10.410;2023-05-14T04:36:48;6.90;;;6.20;;
10509;SDS011;5303;53.266;10.410;2023-05-14T04:39:13;8.70;;;6.47;;
10509;SDS011;5303;53.266;10.410;2023-05-14T04:41:39;6.40;;;5.80;;
10509;SDS011;5303;53.266;10.410;2023-05-14T04:44:04;8.27;;;6.60;;
10509;SDS011;5303;53.266;10.410;2023-05-14T04:46:30;7.63;;;6.83;;
10509;SDS011;5303;53.266;10.410;2023-05-14T04:48:55;7.60;;;6.87;;
10509;SDS011;5303;53.266;10.410;2023-05-14T04:51:21;7.87;;;7.10;;
10509;SDS011;5303;53.266;10.410;2023-05-14T04:53:46;7.23;;;6.20;;
10509;SDS011;5303;53.266;10.410;2023-05-14T04:56:12;10.37;;;7.83;;
10509;SDS011;5303;53.266;10.410;2023-05-14T04:58:37;7.87;;;7.00;;
10509;SDS011;5303;53.266;10.410;2023-05-14T05:01:03;9.13;;;6.93;;
10509;SDS011;5303;53.266;10.410;2023-05-14T05:03:29;8.50;;;6.87;;
10509;SDS011;5303;53.266;10.410;2023-05-14T05:05:55;9.53;;;6.63;;
10509;SDS011;5303;53.266;10.410;2023-05-14T05:08:20;8.77;;;7.10;;
10509;SDS011;5303;53.266;10.410;2023-05-14T05:10:45;7.27;;;6.50;;
10509;SDS011;5303;53.266;10.410;2023-05-14T05:13:11;7.60;;;6.77;;
10509;SDS011;5303;53.266;10.410;2023-05-14T05:15:36;9.00;;;7.30;;
10509;SDS011;5303;53.266;10.410;2023-05-14T05:18:01;9.63;;;7.70;;
10509;SDS011;5303;53.266;10.410;2023-05-14T05:20:27;9.23;;;7.73;;
10509;SDS011;5303;53.266;10.410;2023-05-14T05:22:52;7.87;;;7.17;;
10509;SDS011;5303;53.266;10.410;2023-05-14T05:25:17;8.83;;;7.20;;
10509;SDS011;5303;53.266;10.410;2023-05-14T05:27:43;8.90;;;7.20;;
10509;SDS011;5303;53.266;10.410;2023-05-14T05:30:08;8.20;;;7.43;;
10509;SDS011;5303;53.266;10.410;2023-05-14T05:32:34;7.97;;;6.87;;
10509;SDS011;5303;53.266;10.410;2023-05-14T05:35:00;7.93;;;6.60;;
10509;SDS011;5303;53.266;10.410;2023-05-14T05:37:25;7.70;;;7.00;;
10509;SDS011;5303;53.266;10.410;2023-05-14T05:39:50;7.47;;;6.77;;
10509;SDS011;5303;53.266;10.410;2023-05-14T05:42:16;7.77;;;7.00;;
10509;SDS011;5303;53.266;10.410;2023-05-14T05:44:41;7.33;;;6.63;;
10509;SDS011;5303;53.266;10.410;2023-05-14T05:47:06;7.67;;;6.87;;
10509;SDS011;5303;53.266;10.410;2023-05-14T05:49:32;7.77;;;6.93;;
10509;SDS011;5303;53.266;10.410;2023-05-14T05:51:57;7.90;;;7.20;;
10509;SDS011;5303;53.266;10.410;2023-05-14T05:54:22;8.20;;;7.30;;
10509;SDS011;5303;53.266;10.410;2023-05-14T05:56:51;8.10;;;7.30;;
10509;SDS011;5303;53.266;10.410;2023-05-14T05:59:17;7.33;;;6.63;;
10509;SDS011;5303;53.266;10.410;2023-05-14T06:01:42;8.10;;;7.40;;
10509;SDS011;5303;53.266;10.410;2023-05-14T06:04:07;7.53;;;6.83;;
10509;SDS011;5303;53.266;10.410;2023-05-14T06:06:33;7.97;;;6.63;;
10509;SDS011;5303;53.266;10.410;2023-05-14T06:08:59;7.87;;;7.03;;
10509;SDS011;5303;53.266;10.410;2023-05-14T06:11:25;7.43;;;6.77;;
10509;SDS011;5303;53.266;10.410;2023-05-14T06:13:51;8.73;;;7.07;;
10509;SDS011;5303;53.266;10.410;2023-05-14T06:16:17;8.20;;;7.37;;
10509;SDS011;5303;53.266;10.410;2023-05-14T06:18:42;7.37;;;6.67;;
10509;SDS011;5303;53.266;10.410;2023-05-14T06:21:07;8.57;;;6.90;;
10509;SDS011;5303;53.266;10.410;2023-05-14T06:23:32;7.23;;;6.63;;
10509;SDS011;5303;53.266;10.410;2023-05-14T06:25:58;7.53;;;6.77;;
10509;SDS011;5303;53.266;10.410;2023-05-14T06:28:23;7.30;;;6.60;;
10509;SDS011;5303;53.266;10.410;2023-05-14T06:30:48;8.40;;;6.70;;
10509;SDS011;5303;53.266;10.410;2023-05-14T06:33:14;9.63;;;6.50;;
10509;SDS011;5303;53.266;10.410;2023-05-14T06:35:39;6.77;;;6.10;;
10509;SDS011;5303;53.266;10.410;2023-05-14T06:38:05;6.97;;;5.90;;
10509;SDS011;5303;53.266;10.410;2023-05-14T06:40:30;6.20;;;5.60;;
10509;SDS011;5303;53.266;10.410;2023-05-14T06:42:56;6.87;;;6.13;;
10509;SDS011;5303;53.266;10.410;2023-05-14T06:45:21;7.10;;;6.27;;
10509;SDS011;5303;53.266;10.410;2023-05-14T06:47:46;8.00;;;6.23;;
10509;SDS011;5303;53.266;10.410;2023-05-14T06:50:12;7.13;;;6.40;;
10509;SDS011;5303;53.266;10.410;2023-05-14T06:52:37;6.20;;;5.63;;
10509;SDS011;5303;53.266;10.410;2023-05-14T06:55:02;7.50;;;6.30;;
10509;SDS011;5303;53.266;10.410;2023-05-14T06:57:28;6.43;;;5.80;;
10509;SDS011;5303;53.266;10.410;2023-05-14T06:59:53;7.27;;;5.83;;
10509;SDS011;5303;53.266;10.410;2023-05-14T07:02:18;6.73;;;6.10;;
10509;SDS011;5303;53.266;10.410;2023-05-14T07:04:43;5.80;;;5.20;;
10509;SDS011;5303;53.266;10.410;2023-05-14T07:07:09;7.27;;;5.57;;
10509;SDS011;5303;53.266;10.410;2023-05-14T07:09:37;5.77;;;5.20;;
10509;SDS011;5303;53.266;10.410;2023-05-14T07:12:02;6.33;;;5.50;;
10509;SDS011;5303;53.266;10.410;2023-05-14T07:14:28;6.53;;;5.93;;
10509;SDS011;5303;53.266;10.410;2023-05-14T07:16:53;6.63;;;5.43;;
10509;SDS011;5303;53.266;10.410;2023-05-14T07:19:18;5.43;;;4.47;;
10509;SDS011;5303;53.266;10.410;2023-05-14T07:21:44;5.33;;;4.83;;
10509;SDS011;5303;53.266;10.410;2023-05-14T07:24:09;6.07;;;5.00;;
10509;SDS011;5303;53.266;10.410;2023-05-14T07:26:34;5.67;;;5.17;;
10509;SDS011;5303;53.266;10.410;2023-05-14T07:29:00;6.47;;;4.20;;
10509;SDS011;5303;53.266;10.410;2023-05-14T07:31:25;5.13;;;4.50;;
10509;SDS011;5303;53.266;10.410;2023-05-14T07:33:50;5.73;;;4.13;;
10509;SDS011;5303;53.266;10.410;2023-05-14T07:36:16;4.53;;;3.70;;
10509;SDS011;5303;53.266;10.410;2023-05-14T07:38:41;4.10;;;3.67;;
10509;SDS011;5303;53.266;10.410;2023-05-14T07:41:06;4.60;;;3.87;;
10509;SDS011;5303;53.266;10.410;2023-05-14T07:43:31;4.00;;;3.60;;
10509;SDS011;5303;53.266;10.410;2023-05-14T07:45:57;6.90;;;3.67;;
10509;SDS011;5303;53.266;10.410;2023-05-14T07:48:22;7.70;;;3.87;;
10509;SDS011;5303;53.266;10.410;2023-05-14T07:50:47;5.57;;;4.13;;
10509;SDS011;5303;53.266;10.410;2023-05-14T07:53:13;3.70;;;3.27;;
10509;SDS011;5303;53.266;10.410;2023-05-14T07:55:39;5.20;;;3.73;;
10509;SDS011;5303;53.266;10.410;2023-05-14T07:58:04;5.40;;;3.93;;
10509;SDS011;5303;53.266;10.410;2023-05-14T08:00:30;5.40;;;3.83;;
10509;SDS011;5303;53.266;10.410;2023-05-14T08:02:55;3.67;;;3.37;;
10509;SDS011;5303;53.266;10.410;2023-05-14T08:05:21;6.03;;;4.03;;
10509;SDS011;5303;53.266;10.410;2023-05-14T08:07:46;5.97;;;4.00;;
10509;SDS011;5303;53.266;10.410;2023-05-14T08:10:12;5.30;;;4.10;;
10509;SDS011;5303;53.266;10.410;2023-05-14T08:12:37;4.17;;;3.77;;
10509;SDS011;5303;53.266;10.410;2023-05-14T08:15:03;4.60;;;4.20;;
10509;SDS011;5303;53.266;10.410;2023-05-14T08:17:29;4.50;;;3.60;;
10509;SDS011;5303;53.266;10.410;2023-05-14T08:19:54;6.30;;;4.20;;
10509;SDS011;5303;53.266;10.410;2023-05-14T08:22:20;5.20;;;4.40;;
10509;SDS011;5303;53.266;10.410;2023-05-14T08:24:45;4.50;;;4.10;;
10509;SDS011;5303;53.266;10.410;2023-05-14T08:27:11;4.70;;;4.20;;
10509;SDS011;5303;53.266;10.410;2023-05-14T08:29:36;5.03;;;4.30;;
10509;SDS011;5303;53.266;10.410;2023-05-14T08:32:01;6.23;;;4.30;;
10509;SDS011;5303;53.266;10.410;2023-05-14T08:34:27;4.50;;;4.10;;
10509;SDS011;5303;53.266;10.410;2023-05-14T08:36:52;5.33;;;4.40;;
10509;SDS011;5303;53.266;10.410;2023-05-14T08:39:17;6.00;;;4.37;;
10509;SDS011;5303;53.266;10.410;2023-05-14T08:41:43;5.67;;;4.07;;
10509;SDS011;5303;53.266;10.410;2023-05-14T08:44:12;4.77;;;4.10;;
10509;SDS011;5303;53.266;10.410;2023-05-14T08:46:42;5.83;;;4.30;;
10509;SDS011;5303;53.266;10.410;2023-05-14T08:51:45;4.40;;;3.63;;
10509;SDS011;5303;53.266;10.410;2023-05-14T08:54:12;6.23;;;3.77;;
10509;SDS011;5303;53.266;10.410;2023-05-14T08:56:40;5.33;;;3.70;;
10509;SDS011;5303;53.266;10.410;2023-05-14T08:59:08;4.53;;;3.87;;
10509;SDS011;5303;53.266;10.410;2023-05-14T09:01:35;4.13;;;3.63;;
10509;SDS011;5303;53.266;10.410;2023-05-14T09:04:01;3.70;;;3.20;;
10509;SDS011;5303;53.266;10.410;2023-05-14T09:06:32;4.63;;;3.50;;
10509;SDS011;5303;53.266;10.410;2023-05-14T09:08:58;4.97;;;3.80;;
10509;SDS011;5303;53.266;10.410;2023-05-14T09:11:24;5.20;;;3.77;;
10509;SDS011;5303;53.266;10.410;2023-05-14T09:13:49;4.20;;;3.80;;
10509;SDS011;5303;53.266;10.410;2023-05-14T09:16:15;5.63;;;3.57;;
10509;SDS011;5303;53.266;10.410;2023-05-14T09:18:43;4.70;;;3.30;;
10509;SDS011;5303;53.266;10.410;2023-05-14T09:21:09;4.43;;;3.50;;
10509;SDS011;5303;53.266;10.410;2023-05-14T09:23:34;5.03;;;3.60;;
10509;SDS011;5303;53.266;10.410;2023-05-14T09:26:03;3.67;;;3.30;;
10509;SDS011;5303;53.266;10.410;2023-05-14T09:28:29;5.57;;;3.50;;
10509;SDS011;5303;53.266;10.410;2023-05-14T09:30:54;4.77;;;4.27;;
10509;SDS011;5303;53.266;10.410;2023-05-14T09:33:26;7.13;;;3.90;;
10509;SDS011;5303;53.266;10.410;2023-05-14T09:35:58;5.57;;;3.90;;
10509;SDS011;5303;53.266;10.410;2023-05-14T09:38:27;6.47;;;3.37;;
10509;SDS011;5303;53.266;10.410;2023-05-14T09:40:54;4.87;;;3.40;;
10509;SDS011;5303;53.266;10.410;2023-05-14T09:43:19;5.90;;;3.47;;
10509;SDS011;5303;53.266;10.410;2023-05-14T09:45:45;5.20;;;3.60;;
10509;SDS011;5303;53.266;10.410;2023-05-14T09:48:10;3.47;;;3.17;;
10509;SDS011;5303;53.266;10.410;2023-05-14T09:50:42;4.53;;;3.37;;
10509;SDS011;5303;53.266;10.410;2023-05-14T09:53:08;4.17;;;3.77;;
10509;SDS011;5303;53.266;10.410;2023-05-14T09:55:34;5.13;;;3.50;;
10509;SDS011;5303;53.266;10.410;2023-05-14T09:58:00;5.10;;;3.37;;
10509;SDS011;5303;53.266;10.410;2023-05-14T10:00:26;3.60;;;3.00;;
10509;SDS011;5303;53.266;10.410;2023-05-14T10:02:51;6.23;;;3.53;;
10509;SDS011;5303;53.266;10.410;2023-05-14T10:05:19;5.10;;;3.13;;
10509;SDS011;5303;53.266;10.410;2023-05-14T10:07:47;3.83;;;3.07;;
10509;SDS011;5303;53.266;10.410;2023-05-14T10:10:17;4.88;;;3.42;;
10509;SDS011;5303;53.266;10.410;2023-05-14T10:12:45;6.67;;;3.33;;
10509;SDS011;5303;53.266;10.410;2023-05-14T10:15:47;4.65;;;3.60;;
10509;SDS011;5303;53.266;10.410;2023-05-14T10:18:16;4.60;;;3.00;;
10509;SDS011;5303;53.266;10.410;2023-05-14T10:20:47;5.63;;;3.70;;
10509;SDS011;5303;53.266;10.410;2023-05-14T10:23:17;6.90;;;3.63;;
10509;SDS011;5303;53.266;10.410;2023-05-14T10:25:42;4.80;;;3.20;;
10509;SDS011;5303;53.266;10.410;2023-05-14T10:28:08;5.05;;;3.38;;
10509;SDS011;5303;53.266;10.410;2023-05-14T10:30:34;4.10;;;3.45;;
10509;SDS011;5303;53.266;10.410;2023-05-14T10:33:07;6.10;;;3.75;;
10509;SDS011;5303;53.266;10.410;2023-05-14T10:35:49;5.68;;;3.40;;
10509;SDS011;5303;53.266;10.410;2023-05-14T10:38:29;4.20;;;3.80;;
10509;SDS011;5303;53.266;10.410;2023-05-14T10:41:00;6.32;;;3.63;;
10509;SDS011;5303;53.266;10.410;2023-05-14T10:43:27;4.00;;;3.60;;
10509;SDS011;5303;53.266;10.410;2023-05-14T10:45:56;4.60;;;3.30;;
10509;SDS011;5303;53.266;10.410;2023-05-14T10:48:22;4.95;;;4.43;;
10509;SDS011;5303;53.266;10.410;2023-05-14T10:50:51;4.28;;;3.85;;
10509;SDS011;5303;53.266;10.410;2023-05-14T10:53:17;5.85;;;3.55;;
10509;SDS011;5303;53.266;10.410;2023-05-14T10:55:43;4.22;;;3.38;;
10509;SDS011;5303;53.266;10.410;2023-05-14T10:58:09;5.35;;;3.20;;
10509;SDS011;5303;53.266;10.410;2023-05-14T11:00:36;4.20;;;3.40;;
10509;SDS011;5303;53.266;10.410;2023-05-14T11:03:02;4.03;;;3.40;;
10509;SDS011;5303;53.266;10.410;2023-05-14T11:05:29;4.07;;;3.70;;
10509;SDS011;5303;53.266;10.410;2023-05-14T11:07:55;6.82;;;3.47;;
10509;SDS011;5303;53.266;10.410;2023-05-14T11:10:22;4.80;;;3.20;;
10509;SDS011;5303;53.266;10.410;2023-05-14T11:12:52;5.23;;;3.60;;
10509;SDS011;5303;53.266;10.410;2023-05-14T11:15:19;7.20;;;3.80;;
10509;SDS011;5303;53.266;10.410;2023-05-14T11:17:46;6.40;;;3.60;;
10509;SDS011;5303;53.266;10.410;2023-05-14T11:20:12;4.77;;;3.40;;
10509;SDS011;5303;53.266;10.410;2023-05-14T11:22:40;3.80;;;3.37;;
10509;SDS011;5303;53.266;10.410;2023-05-14T11:25:06;5.40;;;3.73;;
10509;SDS011;5303;53.266;10.410;2023-05-14T11:27:33;4.30;;;3.30;;
10509;SDS011;5303;53.266;10.410;2023-05-14T11:30:00;5.63;;;3.93;;
10509;SDS011;5303;53.266;10.410;2023-05-14T11:32:26;4.00;;;3.60;;
10509;SDS011;5303;53.266;10.410;2023-05-14T11:34:51;5.20;;;3.63;;
10509;SDS011;5303;53.266;10.410;2023-05-14T11:37:17;4.67;;;3.87;;
10509;SDS011;5303;53.266;10.410;2023-05-14T11:39:51;6.23;;;3.60;;
10509;SDS011;5303;53.266;10.410;2023-05-14T11:42:19;6.43;;;3.60;;
10509;SDS011;5303;53.266;10.410;2023-05-14T11:44:46;4.10;;;3.40;;
10509;SDS011;5303;53.266;10.410;2023-05-14T11:47:13;4.37;;;3.50;;
10509;SDS011;5303;53.266;10.410;2023-05-14T11:49:39;4.33;;;3.60;;
10509;SDS011;5303;53.266;10.410;2023-05-14T11:52:05;5.73;;;3.30;;
10509;SDS011;5303;53.266;10.410;2023-05-14T11:54:33;5.13;;;3.43;;
10509;SDS011;5303;53.266;10.410;2023-05-14T11:56:59;5.17;;;3.73;;
10509;SDS011;5303;53.266;10.410;2023-05-14T11:59:27;4.07;;;3.57;;
10509;SDS011;5303;53.266;10.410;2023-05-14T12:01:53;6.30;;;3.50;;
10509;SDS011;5303;53.266;10.410;2023-05-14T12:04:19;7.17;;;3.70;;
10509;SDS011;5303;53.266;10.410;2023-05-14T12:06:49;4.17;;;3.33;;
10509;SDS011;5303;53.266;10.410;2023-05-14T12:09:19;4.37;;;3.60;;
10509;SDS011;5303;53.266;10.410;2023-05-14T12:11:45;3.60;;;3.30;;
10509;SDS011;5303;53.266;10.410;2023-05-14T12:16:44;4.80;;;3.70;;
10509;SDS011;5303;53.266;10.410;2023-05-14T12:19:11;4.87;;;3.97;;
10509;SDS011;5303;53.266;10.410;2023-05-14T12:21:38;5.17;;;3.73;;
10509;SDS011;5303;53.266;10.410;2023-05-14T12:24:07;6.30;;;3.50;;
10509;SDS011;5303;53.266;10.410;2023-05-14T12:26:34;6.43;;;3.47;;
10509;SDS011;5303;53.266;10.410;2023-05-14T12:29:00;4.60;;;3.73;;
10509;SDS011;5303;53.266;10.410;2023-05-14T12:31:27;4.50;;;3.50;;
10509;SDS011;5303;53.266;10.410;2023-05-14T12:33:57;5.97;;;3.30;;
10509;SDS011;5303;53.266;10.410;2023-05-14T12:36:22;4.70;;;3.80;;
10509;SDS011;5303;53.266;10.410;2023-05-14T12:38:48;3.50;;;3.20;;
10509;SDS011;5303;53.266;10.410;2023-05-14T12:41:14;3.90;;;3.50;;
10509;SDS011;5303;53.266;10.410;2023-05-14T12:43:41;4.38;;;3.40;;
10509;SDS011;5303;53.266;10.410;2023-05-14T12:46:07;5.95;;;3.40;;
10509;SDS011;5303;53.266;10.410;2023-05-14T12:48:32;3.70;;;3.40;;
10509;SDS011;5303;53.266;10.410;2023-05-14T12:50:58;4.80;;;3.23;;
10509;SDS011;5303;53.266;10.410;2023-05-14T12:53:23;3.83;;;3.43;;
10509;SDS011;5303;53.266;10.410;2023-05-14T12:55:48;5.40;;;3.50;;
10509;SDS011;5303;53.266;10.410;2023-05-14T12:58:14;4.15;;;3.40;;
10509;SDS011;5303;53.266;10.410;2023-05-14T13:00:39;4.00;;;3.47;;
10509;SDS011;5303;53.266;10.410;2023-05-14T13:03:05;4.10;;;3.70;;
10509;SDS011;5303;53.266;10.410;2023-05-14T13:05:30;5.13;;;3.50;;
10509;SDS011;5303;53.266;10.410;2023-05-14T13:07:57;4.90;;;3.40;;
10509;SDS011;5303;53.266;10.410;2023-05-14T13:10:24;4.20;;;3.03;;
10509;SDS011;5303;53.266;10.410;2023-05-14T13:12:49;4.90;;;3.07;;
10509;SDS011;5303;53.266;10.410;2023-05-14T13:15:16;5.23;;;3.23;;
10509;SDS011;5303;53.266;10.410;2023-05-14T13:17:42;3.80;;;3.23;;
10509;SDS011;5303;53.266;10.410;2023-05-14T13:20:07;6.90;;;3.37;;
10509;SDS011;5303;53.266;10.410;2023-05-14T13:22:33;5.10;;;3.60;;
10509;SDS011;5303;53.266;10.410;2023-05-14T13:24:58;3.80;;;3.40;;
10509;SDS011;5303;53.266;10.410;2023-05-14T13:27:23;5.70;;;3.60;;
10509;SDS011;5303;53.266;10.410;2023-05-14T13:29:49;5.38;;;3.33;;
10509;SDS011;5303;53.266;10.410;2023-05-14T13:32:14;6.27;;;3.77;;
10509;SDS011;5303;53.266;10.410;2023-05-14T13:34:39;7.07;;;4.37;;
10509;SDS011;5303;53.266;10.410;2023-05-14T13:37:04;3.80;;;3.40;;
10509;SDS011;5303;53.266;10.410;2023-05-14T13:39:30;4.20;;;3.80;;
10509;SDS011;5303;53.266;10.410;2023-05-14T13:41:55;6.30;;;3.70;;
10509;SDS011;5303;53.266;10.410;2023-05-14T13:44:21;4.43;;;3.60;;
10509;SDS011;5303;53.266;10.410;2023-05-14T13:46:46;5.30;;;3.70;;
10509;SDS011;5303;53.266;10.410;2023-05-14T13:49:12;8.13;;;3.95;;
10509;SDS011;5303;53.266;10.410;2023-05-14T13:51:37;5.07;;;3.75;;
10509;SDS011;5303;53.266;10.410;2023-05-14T13:54:02;4.88;;;3.75;;
10509;SDS011;5303;53.266;10.410;2023-05-14T13:56:28;5.43;;;3.78;;
10509;SDS011;5303;53.266;10.410;2023-05-14T13:58:53;5.70;;;3.55;;
10509;SDS011;5303;53.266;10.410;2023-05-14T14:01:18;5.40;;;3.53;;
10509;SDS011;5303;53.266;10.410;2023-05-14T14:03:44;4.97;;;3.45;;
10509;SDS011;5303;53.266;10.410;2023-05-14T14:06:09;4.13;;;3.60;;
10509;SDS011;5303;53.266;10.410;2023-05-14T14:08:34;5.80;;;4.07;;
10509;SDS011;5303;53.266;10.410;2023-05-14T14:11:00;6.95;;;3.90;;
10509;SDS011;5303;53.266;10.410;2023-05-14T14:13:25;6.45;;;3.88;;
10509;SDS011;5303;53.266;10.410;2023-05-14T14:15:51;6.00;;;3.72;;
10509;SDS011;5303;53.266;10.410;2023-05-14T14:18:17;6.72;;;4.00;;
10509;SDS011;5303;53.266;10.410;2023-05-14T14:20:42;4.80;;;3.70;;
10509;SDS011;5303;53.266;10.410;2023-05-14T14:23:07;5.53;;;3.60;;
10509;SDS011;5303;53.266;10.410;2023-05-14T14:25:33;6.00;;;3.95;;
10509;SDS011;5303;53.266;10.410;2023-05-14T14:27:58;7.72;;;3.92;;
10509;SDS011;5303;53.266;10.410;2023-05-14T14:30:23;6.50;;;3.85;;
10509;SDS011;5303;53.266;10.410;2023-05-14T14:32:49;7.07;;;3.90;;
10509;SDS011;5303;53.266;10.410;2023-05-14T14:35:15;7.38;;;4.13;;
10509;SDS011;5303;53.266;10.410;2023-05-14T14:37:41;4.53;;;3.85;;
10509;SDS011;5303;53.266;10.410;2023-05-14T14:40:09;5.13;;;3.95;;
10509;SDS011;5303;53.266;10.410;2023-05-14T14:42:35;8.65;;;4.00;;
10509;SDS011;5303;53.266;10.410;2023-05-14T14:45:02;7.68;;;4.30;;
10509;SDS011;5303;53.266;10.410;2023-05-14T14:47:34;4.50;;;4.10;;
10509;SDS011;5303;53.266;10.410;2023-05-14T14:50:02;4.50;;;3.53;;
10509;SDS011;5303;53.266;10.410;2023-05-14T14:52:28;4.85;;;4.05;;
10509;SDS011;5303;53.266;10.410;2023-05-14T14:54:53;4.32;;;3.53;;